Time;durP1;ratioP1;P1;durP2;ratioP2;P2;SDS_P1;SDS_P2;PMS_P1;PMS_P2;Temp;Humidity;BMP_temperature;BMP_pressure;BME280_temperature;BME280_humidity;BME280_pressure;Samples;Min_cycle;Max_cycle;Signal;HPM_P1;HPM_P2
2021/05/03 00:04:38;;;;;;;10.90;5.35;;;3.50;81.70;;;;;;5037012;28;20095;-89
2021/05/03 00:10:26;;;;;;;11.23;6.03;;;3.40;81.90;;;;;;5036933;28;20397;-90
2021/05/03 00:20:09;;;;;;;11.68;5.43;;;3.20;81.60;;;;;;5037021;28;20142;-88
2021/05/03 00:25:58;;;;;;;13.52;5.60;;;3.00;81.50;;;;;;5036850;28;20092;-87
2021/05/03 00:31:46;;;;;;;11.05;5.38;;;3.00;81.70;;;;;;5036416;28;20585;-89
2021/05/03 00:37:36;;;;;;;12.20;6.20;;;2.90;81.80;;;;;;5036491;28;20032;-86
2021/05/03 00:43:24;;;;;;;10.85;5.40;;;2.80;81.80;;;;;;5036166;28;20539;-87
2021/05/03 00:49:12;;;;;;;10.82;5.25;;;2.70;81.80;;;;;;5035960;28;20024;-87
2021/05/03 00:55:01;;;;;;;10.65;5.15;;;2.60;81.80;;;;;;5036046;28;20048;-87
2021/05/03 01:01:38;;;;;;;11.65;5.03;;;2.50;81.70;;;;;;5035766;28;20169;-89
2021/05/03 01:07:27;;;;;;;11.73;6.10;;;2.50;81.90;;;;;;5035827;28;20385;-86
2021/05/03 01:13:16;;;;;;;11.85;5.80;;;2.40;81.90;;;;;;5035789;28;20083;-86
2021/05/03 01:23:07;;;;;;;10.52;5.45;;;2.20;81.90;;;;;;5035938;28;20480;-86
2021/05/03 01:28:55;;;;;;;13.50;6.28;;;2.20;82.30;;;;;;5036242;28;20369;-86
2021/05/03 01:34:43;;;;;;;11.90;6.30;;;2.30;82.70;;;;;;5035745;28;20043;-88
2021/05/03 01:40:33;;;;;;;10.85;5.75;;;2.20;82.40;;;;;;5035157;28;20129;-88
2021/05/03 01:46:23;;;;;;;12.48;6.13;;;2.20;82.10;;;;;;5042747;28;20055;-88
2021/05/03 01:52:12;;;;;;;12.23;6.10;;;2.10;82.10;;;;;;5047167;28;20115;-87
2021/05/03 01:58:02;;;;;;;12.57;6.43;;;2.10;82.50;;;;;;5040434;28;20032;-88
2021/05/03 02:03:51;;;;;;;12.65;6.03;;;2.10;82.70;;;;;;5036187;28;20378;-87
2021/05/03 02:09:43;;;;;;;11.23;5.45;;;2.20;82.60;;;;;;5034579;28;20033;-87
2021/05/03 02:15:33;;;;;;;14.00;6.13;;;2.20;82.70;;;;;;5034823;28;20080;-88
2021/05/03 02:25:22;;;;;;;12.43;6.32;;;2.20;82.70;;;;;;5034715;28;20043;-87
2021/05/03 02:31:10;;;;;;;14.85;6.38;;;2.20;83.10;;;;;;5034451;28;20087;-88
2021/05/03 02:37:00;;;;;;;12.18;6.38;;;2.30;83.20;;;;;;5034167;28;20067;-88
2021/05/03 02:42:50;;;;;;;13.95;6.22;;;2.40;83.20;;;;;;5034417;28;20080;-87
2021/05/03 02:48:38;;;;;;;13.07;6.95;;;2.40;83.30;;;;;;5034266;28;20184;-87
2021/05/03 02:54:28;;;;;;;13.43;7.00;;;2.60;84.20;;;;;;5034205;28;20048;-88
2021/05/03 03:00:24;;;;;;;14.48;6.47;;;2.80;84.30;;;;;;5034006;28;20048;-88
2021/05/03 03:06:14;;;;;;;12.38;6.32;;;3.10;84.60;;;;;;5033670;28;20056;-89
2021/05/03 03:12:03;;;;;;;12.45;6.65;;;3.30;84.50;;;;;;5033646;28;20523;-88
2021/05/03 03:17:53;;;;;;;12.63;6.03;;;3.30;83.40;;;;;;5033584;28;20029;-88
2021/05/03 03:27:42;;;;;;;12.05;6.30;;;3.10;83.00;;;;;;5033725;28;20044;-88
2021/05/03 03:33:31;;;;;;;11.95;6.68;;;3.00;83.30;;;;;;5033654;28;20056;-88
2021/05/03 03:39:20;;;;;;;10.43;5.80;;;3.10;84.00;;;;;;5033644;28;20039;-89
2021/05/03 03:45:10;;;;;;;14.50;6.40;;;3.20;83.70;;;;;;5033938;28;20095;-87
2021/05/03 03:50:58;;;;;;;13.27;7.20;;;3.20;83.40;;;;;;5034126;28;20496;-89
2021/05/03 03:56:47;;;;;;;13.50;6.88;;;3.10;83.10;;;;;;5036121;28;20052;-88
2021/05/03 04:02:36;;;;;;;14.23;7.07;;;2.90;82.70;;;;;;5033479;28;20511;-88
2021/05/03 04:30:45;;;;;;;13.18;7.28;;;2.80;83.60;;;;;;5036731;28;20180;-87
2021/05/03 04:36:34;;;;;;;17.38;8.18;;;2.90;83.80;;;;;;5036378;28;20041;-86
2021/05/03 04:42:23;;;;;;;17.45;8.05;;;3.20;84.70;;;;;;5036507;28;20539;-87
2021/05/03 04:48:12;;;;;;;14.23;6.95;;;3.40;84.70;;;;;;5036442;28;20121;-86
2021/05/03 04:54:00;;;;;;;11.98;6.63;;;3.60;84.60;;;;;;5036080;28;20120;-87
2021/05/03 04:59:49;;;;;;;13.50;7.00;;;3.80;84.80;;;;;;5035829;28;20025;-86
2021/05/03 05:05:38;;;;;;;11.52;6.45;;;3.90;84.20;;;;;;5035854;28;20028;-86
2021/05/03 05:11:26;;;;;;;13.75;7.07;;;4.00;84.80;;;;;;5035727;28;20039;-86
2021/05/03 05:17:15;;;;;;;14.77;6.97;;;4.20;84.60;;;;;;5035794;28;20028;-85
2021/05/03 05:23:15;;;;;;;;;;;;;;;;;;;;;
2021/05/03 05:33:04;;;;;;;12.70;6.95;;;4.70;85.20;;;;;;5034407;28;20572;-87
2021/05/03 05:38:53;;;;;;;12.60;6.88;;;5.10;85.80;;;;;;5035711;28;20044;-88
2021/05/03 05:44:41;;;;;;;14.05;7.60;;;5.50;86.20;;;;;;5035437;28;20025;-84
2021/05/03 05:51:01;;;;;;;11.13;5.85;;;5.90;86.40;;;;;;5035228;28;20516;-87
2021/05/03 05:57:11;;;;;;;13.98;6.95;;;6.10;85.60;;;;;;5034945;28;20036;-87
2021/05/03 06:25:06;;;;;;;;;;;;;;;;;;;;;
2021/05/03 06:51:17;;;;;;;10.35;5.32;;;8.80;87.20;;;;;;5383656;23;20398;-85
2021/05/03 06:57:16;;;;;;;10.30;5.57;;;9.40;87.40;;;;;;5053806;28;20024;-85
2021/05/03 07:38:05;;;;;;;;;;;;;;;;;;;;;
2021/05/03 07:51:15;;;;;;;8.43;4.47;;;10.30;84.10;;;;;;4914988;29;20064;-88
2021/05/03 08:11:39;;;;;;;;;;;;;;;;;;;;;
2021/05/03 08:25:06;;;;;;;6.05;3.15;;;11.90;86.20;;;;;;4918127;29;20032;-88
2021/05/03 08:32:16;;;;;;;9.93;4.72;;;12.50;85.60;;;;;;4918191;29;20035;-86
2021/05/03 08:38:01;;;;;;;8.85;4.20;;;13.20;85.10;;;;;;4975322;28;19952;-86
2021/05/03 08:44:53;;;;;;;10.45;5.32;;;13.10;82.60;;;;;;4974949;28;20114;-85
2021/05/03 08:51:14;;;;;;;8.15;3.67;;;12.60;81.10;;;;;;4955833;29;20090;-87
2021/05/03 08:57:49;;;;;;;8.63;3.78;;;11.90;81.40;;;;;;4987675;28;20041;-85
2021/05/03 09:03:51;;;;;;;5.30;2.70;;;11.90;82.90;;;;;;4994609;28;20075;-86
2021/05/03 09:09:55;;;;;;;9.98;3.80;;;12.00;82.60;;;;;;5033687;28;20500;-86
2021/05/03 09:32:37;;;;;;;5.63;3.00;;;12.80;83.30;;;;;;4984947;28;20025;-85
2021/05/03 09:38:44;;;;;;;8.88;4.60;;;13.20;82.80;;;;;;5055300;28;20047;-85
2021/05/03 09:44:44;;;;;;;6.38;3.28;;;13.30;82.30;;;;;;5055076;28;20087;-85
2021/05/03 09:50:43;;;;;;;8.13;4.13;;;13.40;81.60;;;;;;5054908;28;20079;-85
2021/05/03 09:57:13;;;;;;;8.02;4.15;;;13.40;81.40;;;;;;5055145;28;20036;-85
2021/05/03 10:09:35;;;;;;;8.32;3.80;;;13.50;80.90;;;;;;4973911;28;20033;-85
2021/05/03 10:15:24;;;;;;;6.65;3.22;;;13.90;82.50;;;;;;4974099;28;20074;-85
2021/05/03 10:21:14;;;;;;;4.57;2.67;;;14.40;81.20;;;;;;4973591;28;20054;-85
2021/05/03 10:27:04;;;;;;;6.50;2.80;;;14.60;80.70;;;;;;5011373;28;20067;-85
2021/05/03 10:33:09;;;;;;;7.78;3.92;;;14.80;80.50;;;;;;5054373;28;20040;-85
2021/05/03 10:39:24;;;;;;;8.10;3.65;;;15.30;81.50;;;;;;5054207;28;20120;-85
2021/05/03 10:45:23;;;;;;;6.30;3.25;;;15.80;79.70;;;;;;5054138;28;20044;-85
2021/05/03 10:52:14;;;;;;;7.93;3.65;;;15.60;79.00;;;;;;5054045;28;20031;-86
2021/05/03 10:57:37;;;;;;;8.00;3.65;;;17.00;84.20;;;;;;5053662;28;20075;-85
2021/05/03 11:03:59;;;;;;;8.43;3.70;;;17.60;79.60;;;;;;5053499;28;20036;-86
2021/05/03 11:09:52;;;;;;;7.35;3.63;;;17.30;77.70;;;;;;5053735;28;20099;-82
2021/05/03 11:15:46;;;;;;;7.72;3.40;;;17.40;78.80;;;;;;5053586;28;20040;-83
2021/05/03 11:21:47;;;;;;;6.63;3.58;;;17.10;77.40;;;;;;5053680;28;20048;-84
2021/05/03 11:28:31;;;;;;;4.22;2.47;;;16.80;76.40;;;;;;5053657;28;20043;-86
2021/05/03 11:34:37;;;;;;;8.32;3.75;;;16.90;78.70;;;;;;5057701;28;20043;-85
2021/05/03 11:40:52;;;;;;;6.43;3.50;;;18.80;81.30;;;;;;5057440;28;20093;-86
2021/05/03 11:46:46;;;;;;;8.00;3.47;;;19.80;82.90;;;;;;5057195;28;20095;-86
2021/05/03 12:06:05;;;;;;;;;;;;;;;;;;;;;
2021/05/03 12:12:04;;;;;;;8.38;4.18;;;18.60;73.80;;;;;;4919874;29;20039;-91
2021/05/03 12:24:44;;;;;;;11.20;5.68;;;18.90;74.00;;;;;;4956717;29;20070;-86
2021/05/03 12:30:59;;;;;;;7.78;3.90;;;19.10;73.80;;;;;;4995050;28;20032;-87
2021/05/03 12:43:46;;;;;;;8.07;3.47;;;24.30;84.70;;;;;;4955823;28;20126;-84
2021/05/03 13:00:20;;;;;;;8.30;3.90;;;23.10;71.00;;;;;;4994545;28;20029;-87
2021/05/03 13:32:27;;;;;;;6.82;3.42;;;29.70;71.30;;;;;;5002949;28;20488;-86
2021/05/03 13:38:18;;;;;;;6.97;3.25;;;27.10;74.30;;;;;;5054966;28;20056;-87
2021/05/03 14:00:49;;;;;;;8.10;3.40;;;33.00;73.10;;;;;;5055274;28;20104;-86
2021/05/03 14:06:42;;;;;;;7.03;3.20;;;28.70;65.10;;;;;;5054618;28;20044;-84
2021/05/03 14:12:30;;;;;;;6.53;3.28;;;26.70;66.60;;;;;;5054525;28;20554;-87
2021/05/03 14:18:19;;;;;;;7.47;3.63;;;25.10;70.20;;;;;;5054275;28;20073;-82
2021/05/03 14:24:09;;;;;;;6.18;3.47;;;23.50;65.80;;;;;;5054295;28;20023;-81
2021/05/03 14:30:00;;;;;;;8.23;4.57;;;22.90;70.40;;;;;;5054233;28;20075;-82
2021/05/03 14:35:49;;;;;;;6.57;3.28;;;25.70;67.90;;;;;;5054072;28;20062;-84
2021/05/03 14:41:39;;;;;;;5.72;3.10;;;23.90;63.00;;;;;;5054560;28;20051;-84
2021/05/03 14:48:04;;;;;;;5.18;2.78;;;21.70;64.10;;;;;;5053939;28;20040;-82
2021/05/03 14:53:58;;;;;;;5.22;2.65;;;21.90;67.80;;;;;;5053987;28;20032;-82
2021/05/03 15:03:48;;;;;;;7.00;2.92;;;21.30;66.70;;;;;;5053955;28;20090;-82
2021/05/03 15:09:40;;;;;;;8.52;4.35;;;26.10;82.60;;;;;;5053724;28;20162;-82
2021/05/03 15:15:41;;;;;;;6.63;3.17;;;28.20;61.90;;;;;;5053749;28;20492;-82
2021/05/03 15:21:37;;;;;;;5.18;2.60;;;24.70;58.90;;;;;;5053486;28;20028;-82
2021/05/03 15:27:36;;;;;;;6.88;3.58;;;24.30;75.00;;;;;;5053346;28;20078;-84
2021/05/03 15:33:35;;;;;;;7.05;2.85;;;27.20;58.60;;;;;;5053458;28;20400;-87
2021/05/03 15:39:23;;;;;;;4.97;2.30;;;24.60;56.90;;;;;;5053227;28;20063;-84
2021/05/03 15:45:12;;;;;;;4.97;2.50;;;22.70;60.60;;;;;;5053541;28;20036;-83
2021/05/03 15:51:01;;;;;;;5.50;3.05;;;25.00;68.10;;;;;;5053095;28;20043;-84
2021/05/03 15:56:51;;;;;;;5.05;2.38;;;26.30;63.00;;;;;;5053310;28;20159;-83
2021/05/03 16:06:41;;;;;;;5.28;2.50;;;23.00;55.70;;;;;;5053314;28;20491;-83
2021/05/03 16:12:29;;;;;;;7.05;3.83;;;21.90;55.50;;;;;;5052846;28;20492;-85
2021/05/03 16:18:17;;;;;;;4.57;2.33;;;21.30;57.40;;;;;;5054952;28;20032;-83
2021/05/03 16:24:06;;;;;;;5.70;2.67;;;21.30;58.90;;;;;;5056884;28;20047;-84
2021/05/03 16:29:55;;;;;;;5.15;2.63;;;22.50;58.90;;;;;;5056692;28;20032;-84
2021/05/03 16:35:44;;;;;;;4.55;2.40;;;23.10;56.30;;;;;;5056653;28;20048;-83
2021/05/03 16:50:37;;;;;;;5.95;2.72;;;19.60;55.00;;;;;;5056286;28;20087;-87
2021/05/03 19:12:59;;;;;;;5.93;2.80;;;12.60;53.20;;;;;;4962796;29;20435;-85
2021/05/03 19:18:48;;;;;;;5.35;2.60;;;12.20;53.50;;;;;;4957137;29;20034;-88
2021/05/03 19:24:36;;;;;;;9.88;4.55;;;11.90;53.60;;;;;;4955860;29;20055;-86
2021/05/03 19:43:32;;;;;;;6.55;3.17;;;11.10;54.00;;;;;;4955557;29;20035;-86
2021/05/03 19:49:28;;;;;;;7.97;3.47;;;10.90;53.90;;;;;;4955535;29;20034;-87
2021/05/03 20:07:12;;;;;;;11.02;5.22;;;10.10;54.20;;;;;;4961587;29;19926;-88
2021/05/03 20:13:06;;;;;;;11.30;5.07;;;9.90;54.40;;;;;;4959109;29;20054;-88
2021/05/03 20:18:55;;;;;;;11.80;6.22;;;9.70;54.30;;;;;;4958659;29;20058;-88
2021/05/03 20:24:43;;;;;;;13.35;6.35;;;9.50;54.30;;;;;;4958601;29;20038;-88
2021/05/03 20:30:31;;;;;;;14.25;6.20;;;9.30;54.50;;;;;;4958697;29;20030;-93
2021/05/03 20:36:35;;;;;;;12.02;5.72;;;9.10;54.50;;;;;;4958372;29;20034;-86
2021/05/03 20:42:23;;;;;;;13.20;5.85;;;8.90;54.70;;;;;;4958248;29;20510;-86
2021/05/03 20:48:12;;;;;;;13.00;6.60;;;8.70;54.80;;;;;;4958034;29;20391;-86
2021/05/03 20:54:01;;;;;;;13.15;7.18;;;8.50;54.80;;;;;;4958095;29;20057;-87
2021/05/03 20:59:50;;;;;;;14.60;7.15;;;8.40;54.90;;;;;;4957913;29;20073;-87
2021/05/03 21:05:38;;;;;;;12.85;6.15;;;8.20;55.00;;;;;;4958079;29;20179;-86
2021/05/03 21:11:27;;;;;;;11.70;6.50;;;8.10;55.00;;;;;;4957727;29;20051;-86
2021/05/03 21:17:15;;;;;;;13.35;6.22;;;8.00;55.20;;;;;;4957758;29;20029;-87
2021/05/03 21:23:04;;;;;;;11.55;6.25;;;7.80;55.10;;;;;;4957535;29;20027;-87
2021/05/03 21:28:53;;;;;;;12.00;6.00;;;7.70;55.30;;;;;;4958009;29;20021;-87
2021/05/03 21:34:42;;;;;;;11.10;5.88;;;7.50;55.40;;;;;;4957454;29;20487;-87
2021/05/03 21:40:31;;;;;;;12.52;6.40;;;7.40;55.40;;;;;;4957610;29;20570;-87
2021/05/03 21:46:33;;;;;;;;;;;;;;;;;;;;;
2021/05/03 21:52:23;;;;;;;11.35;6.20;;;7.10;55.50;;;;;;4957014;29;20111;-86
2021/05/03 21:58:11;;;;;;;11.60;6.13;;;7.00;55.70;;;;;;4956897;29;20078;-88
2021/05/03 22:04:00;;;;;;;11.98;6.43;;;6.90;55.80;;;;;;4957072;29;20435;-87
2021/05/03 22:13:45;;;;;;;12.75;6.38;;;6.70;55.70;;;;;;4956892;29;20073;-87
2021/05/03 22:19:49;;;;;;;12.48;6.03;;;6.50;56.00;;;;;;4956511;29;20030;-88
2021/05/03 22:31:33;;;;;;;10.85;6.18;;;6.30;55.90;;;;;;4956430;29;20050;-89
2021/05/03 22:37:29;;;;;;;11.27;6.40;;;6.20;56.00;;;;;;4956399;29;20423;-87
2021/05/03 23:17:16;;;;;;;10.02;5.43;;;5.90;56.80;;;;;;4956572;29;20110;-85
2021/05/03 23:23:07;;;;;;;10.05;5.30;;;5.80;56.80;;;;;;4957812;29;20034;-86
2021/05/03 23:28:55;;;;;;;11.30;5.10;;;5.80;56.90;;;;;;4960308;29;20054;-86
2021/05/03 23:34:44;;;;;;;9.77;5.28;;;5.80;56.90;;;;;;4956747;29;20038;-86
2021/05/03 23:40:32;;;;;;;10.35;5.38;;;5.70;56.90;;;;;;4955682;29;20054;-86
2021/05/03 23:46:22;;;;;;;10.38;5.28;;;5.70;56.90;;;;;;4955539;29;20030;-88
2021/05/03 23:52:10;;;;;;;10.80;5.93;;;5.60;57.00;;;;;;4955372;29;20546;-86
2021/05/03 23:57:59;;;;;;;12.52;6.03;;;5.60;57.00;;;;;;4955659;29;20055;-88
